Strona główna
METAR-TAF:

Lotnisko :

Kraków, Polska

Port lotniczy Kraków-Balice

Szerokość geograficzna: 50-05N, Długość geograficzna: 019-48E, wysokość: 237 m

Aktualna obserwacja pogody

Raport powstał 38 minut temu, godzina 02:30 UTC
Wiatr 2 kt od zachód
Temperatura 10°C
Wilgotność 93%
Ciśnienie 1015 hPa
Widzialność 10 km lub więcej
Brak chmur poniżej 1500 m i brak chmur cumulonimbus

METAR: EPKK 010230Z 26002KT CAVOK 10/09 Q1015

czas: 05:08 (03:08 UTC)

Prognoza

Raport powstał 3 godziny i 38 minut temu, godzina 23:30 UTC
Prognoza ważna od 01 godzina 00 UTC do 01 godzina 24 UTC
Wiatr 2 kt z kierunków zmiennych
Widzialność 10 km lub więcej
Brak chmur poniżej 1500 m i brak chmur cumulonimbus
Prawdopodobieństwo 40% :
Przejściowo
od 01 godzina 02 UTC do 01 godzina 07 UTC
Widzialność: 3000 m
zamglenie

TAF: EPKK 302330Z 0100/0124 VRB02KT CAVOK PROB40 TEMPO 0102/0107 3000 BR

METAR-TAF

Obserwacja i prognoza pogody dla ponad 4000 lotnisk (raport METAR i TAF).

Dostępne stacje oznaczono żółtymi i czerwonymi punktami na mapie.

Najedź kursorem aby zobaczyć nazwę stacji.

Kliknij aby zobaczyć obserwacje i prognozy pogody.

Aby zmienić mapę: kliknij na zielony przycisk z czarnym krzyżykiem, aby powiększyć; na zielony przycisk z myślnikiem, aby pomniejszyć; na zielone strzałki, aby przejść do map sąsiednich.


METAR-TAF: